sensor_id;sensor_type;location;lat;lon;timestamp;P1;durP1;ratioP1;P2;durP2;ratioP2
6127;SDS011;7073;42.672;23.256;2022-11-18T00:02:02;30.30;;;17.80;;
6127;SDS011;7073;42.672;23.256;2022-11-18T00:04:29;29.50;;;18.47;;
6127;SDS011;7073;42.672;23.256;2022-11-18T00:06:56;28.50;;;17.40;;
6127;SDS011;7073;42.672;23.256;2022-11-18T00:09:23;34.07;;;18.10;;
6127;SDS011;7073;42.672;23.256;2022-11-18T00:11:49;32.37;;;19.50;;
6127;SDS011;7073;42.672;23.256;2022-11-18T00:14:38;31.50;;;18.73;;
6127;SDS011;7073;42.672;23.256;2022-11-18T00:17:05;28.03;;;16.97;;
6127;SDS011;7073;42.672;23.256;2022-11-18T00:19:33;23.90;;;15.13;;
6127;SDS011;7073;42.672;23.256;2022-11-18T00:22:10;30.40;;;17.60;;
6127;SDS011;7073;42.672;23.256;2022-11-18T00:24:38;25.97;;;16.57;;
6127;SDS011;7073;42.672;23.256;2022-11-18T00:27:05;29.37;;;17.13;;
6127;SDS011;7073;42.672;23.256;2022-11-18T00:29:32;34.70;;;18.43;;
6127;SDS011;7073;42.672;23.256;2022-11-18T00:32:00;26.50;;;15.00;;
6127;SDS011;7073;42.672;23.256;2022-11-18T00:34:27;30.60;;;16.17;;
6127;SDS011;7073;42.672;23.256;2022-11-18T00:36:55;27.83;;;15.73;;
6127;SDS011;7073;42.672;23.256;2022-11-18T00:39:23;25.97;;;15.60;;
6127;SDS011;7073;42.672;23.256;2022-11-18T00:41:50;27.97;;;15.33;;
6127;SDS011;7073;42.672;23.256;2022-11-18T00:44:34;26.33;;;16.57;;
6127;SDS011;7073;42.672;23.256;2022-11-18T00:47:15;27.27;;;17.47;;
6127;SDS011;7073;42.672;23.256;2022-11-18T00:50:13;33.80;;;20.00;;
6127;SDS011;7073;42.672;23.256;2022-11-18T00:52:40;26.90;;;18.53;;
6127;SDS011;7073;42.672;23.256;2022-11-18T00:55:07;27.80;;;18.40;;
6127;SDS011;7073;42.672;23.256;2022-11-18T00:57:34;27.33;;;16.87;;
6127;SDS011;7073;42.672;23.256;2022-11-18T01:00:01;24.90;;;15.90;;
6127;SDS011;7073;42.672;23.256;2022-11-18T01:02:30;26.00;;;16.10;;
6127;SDS011;7073;42.672;23.256;2022-11-18T01:04:57;28.37;;;18.33;;
6127;SDS011;7073;42.672;23.256;2022-11-18T01:07:24;22.33;;;14.37;;
6127;SDS011;7073;42.672;23.256;2022-11-18T01:09:51;26.67;;;15.40;;
6127;SDS011;7073;42.672;23.256;2022-11-18T01:12:17;30.33;;;16.67;;
6127;SDS011;7073;42.672;23.256;2022-11-18T01:15:01;27.87;;;15.43;;
6127;SDS011;7073;42.672;23.256;2022-11-18T01:17:30;28.40;;;15.67;;
6127;SDS011;7073;42.672;23.256;2022-11-18T01:19:57;28.50;;;16.20;;
6127;SDS011;7073;42.672;23.256;2022-11-18T01:22:24;32.50;;;18.70;;
6127;SDS011;7073;42.672;23.256;2022-11-18T01:24:50;26.03;;;15.63;;
6127;SDS011;7073;42.672;23.256;2022-11-18T01:27:17;22.37;;;15.33;;
6127;SDS011;7073;42.672;23.256;2022-11-18T01:29:44;43.93;;;24.63;;
6127;SDS011;7073;42.672;23.256;2022-11-18T01:32:11;22.47;;;14.50;;
6127;SDS011;7073;42.672;23.256;2022-11-18T01:34:39;21.70;;;13.60;;
6127;SDS011;7073;42.672;23.256;2022-11-18T01:37:06;21.70;;;14.17;;
6127;SDS011;7073;42.672;23.256;2022-11-18T01:39:33;19.80;;;13.17;;
6127;SDS011;7073;42.672;23.256;2022-11-18T01:41:59;22.30;;;13.77;;
6127;SDS011;7073;42.672;23.256;2022-11-18T01:47:35;22.57;;;13.60;;
6127;SDS011;7073;42.672;23.256;2022-11-18T01:50:07;22.23;;;14.80;;
6127;SDS011;7073;42.672;23.256;2022-11-18T01:52:34;23.10;;;12.33;;
6127;SDS011;7073;42.672;23.256;2022-11-18T01:55:05;24.30;;;14.83;;
6127;SDS011;7073;42.672;23.256;2022-11-18T01:57:36;29.70;;;16.37;;
6127;SDS011;7073;42.672;23.256;2022-11-18T02:00:04;23.40;;;13.83;;
6127;SDS011;7073;42.672;23.256;2022-11-18T02:02:33;29.00;;;15.97;;
6127;SDS011;7073;42.672;23.256;2022-11-18T02:05:02;25.40;;;16.60;;
6127;SDS011;7073;42.672;23.256;2022-11-18T02:07:32;26.57;;;15.00;;
6127;SDS011;7073;42.672;23.256;2022-11-18T02:10:01;23.13;;;13.80;;
6127;SDS011;7073;42.672;23.256;2022-11-18T02:12:30;25.47;;;15.97;;
6127;SDS011;7073;42.672;23.256;2022-11-18T02:14:57;21.70;;;14.90;;
6127;SDS011;7073;42.672;23.256;2022-11-18T02:17:28;21.93;;;15.23;;
6127;SDS011;7073;42.672;23.256;2022-11-18T02:20:23;25.13;;;15.87;;
6127;SDS011;7073;42.672;23.256;2022-11-18T02:26:17;24.50;;;15.07;;
6127;SDS011;7073;42.672;23.256;2022-11-18T02:29:03;26.13;;;15.20;;
6127;SDS011;7073;42.672;23.256;2022-11-18T02:31:34;24.30;;;14.57;;
6127;SDS011;7073;42.672;23.256;2022-11-18T02:34:11;21.77;;;14.60;;
6127;SDS011;7073;42.672;23.256;2022-11-18T02:36:45;21.80;;;14.30;;
6127;SDS011;7073;42.672;23.256;2022-11-18T02:39:19;24.00;;;15.10;;
6127;SDS011;7073;42.672;23.256;2022-11-18T02:41:52;21.03;;;13.57;;
6127;SDS011;7073;42.672;23.256;2022-11-18T02:44:23;22.63;;;14.60;;
6127;SDS011;7073;42.672;23.256;2022-11-18T02:46:54;27.60;;;17.13;;
6127;SDS011;7073;42.672;23.256;2022-11-18T02:49:26;24.53;;;15.43;;
6127;SDS011;7073;42.672;23.256;2022-11-18T02:51:58;21.80;;;15.10;;
6127;SDS011;7073;42.672;23.256;2022-11-18T02:54:25;24.20;;;14.60;;
6127;SDS011;7073;42.672;23.256;2022-11-18T02:56:54;18.67;;;12.00;;
6127;SDS011;7073;42.672;23.256;2022-11-18T02:59:23;20.90;;;13.93;;
6127;SDS011;7073;42.672;23.256;2022-11-18T03:01:53;22.80;;;13.60;;
6127;SDS011;7073;42.672;23.256;2022-11-18T03:04:20;24.20;;;15.80;;
6127;SDS011;7073;42.672;23.256;2022-11-18T03:06:59;61.07;;;32.47;;
6127;SDS011;7073;42.672;23.256;2022-11-18T03:09:35;26.03;;;14.50;;
6127;SDS011;7073;42.672;23.256;2022-11-18T03:12:07;25.10;;;16.07;;
6127;SDS011;7073;42.672;23.256;2022-11-18T03:14:45;23.03;;;15.00;;
6127;SDS011;7073;42.672;23.256;2022-11-18T03:17:22;26.10;;;14.30;;
6127;SDS011;7073;42.672;23.256;2022-11-18T03:20:00;24.20;;;15.23;;
6127;SDS011;7073;42.672;23.256;2022-11-18T03:22:35;25.50;;;15.00;;
6127;SDS011;7073;42.672;23.256;2022-11-18T03:25:06;24.90;;;15.50;;
6127;SDS011;7073;42.672;23.256;2022-11-18T03:27:37;25.00;;;16.20;;
6127;SDS011;7073;42.672;23.256;2022-11-18T03:30:12;28.40;;;17.70;;
6127;SDS011;7073;42.672;23.256;2022-11-18T03:32:42;28.83;;;16.80;;
6127;SDS011;7073;42.672;23.256;2022-11-18T03:35:15;24.60;;;15.00;;
6127;SDS011;7073;42.672;23.256;2022-11-18T03:37:46;30.80;;;16.53;;
6127;SDS011;7073;42.672;23.256;2022-11-18T03:40:19;32.47;;;19.10;;
6127;SDS011;7073;42.672;23.256;2022-11-18T03:42:51;26.33;;;15.20;;
6127;SDS011;7073;42.672;23.256;2022-11-18T03:45:24;26.93;;;16.63;;
6127;SDS011;7073;42.672;23.256;2022-11-18T03:47:54;27.07;;;16.97;;
6127;SDS011;7073;42.672;23.256;2022-11-18T03:50:28;29.77;;;16.30;;
6127;SDS011;7073;42.672;23.256;2022-11-18T03:52:59;24.17;;;15.00;;
6127;SDS011;7073;42.672;23.256;2022-11-18T03:55:29;32.40;;;19.17;;
6127;SDS011;7073;42.672;23.256;2022-11-18T03:58:02;25.63;;;16.77;;
6127;SDS011;7073;42.672;23.256;2022-11-18T04:00:36;34.30;;;18.37;;
6127;SDS011;7073;42.672;23.256;2022-11-18T04:03:06;30.77;;;18.00;;
6127;SDS011;7073;42.672;23.256;2022-11-18T04:05:35;36.83;;;21.63;;
6127;SDS011;7073;42.672;23.256;2022-11-18T04:08:05;31.77;;;19.87;;
6127;SDS011;7073;42.672;23.256;2022-11-18T04:10:37;41.23;;;24.30;;
6127;SDS011;7073;42.672;23.256;2022-11-18T04:13:07;39.70;;;21.37;;
6127;SDS011;7073;42.672;23.256;2022-11-18T04:15:40;34.03;;;18.43;;
6127;SDS011;7073;42.672;23.256;2022-11-18T04:18:08;36.13;;;19.23;;
6127;SDS011;7073;42.672;23.256;2022-11-18T04:20:36;41.40;;;20.00;;
6127;SDS011;7073;42.672;23.256;2022-11-18T04:23:03;66.23;;;21.03;;
6127;SDS011;7073;42.672;23.256;2022-11-18T04:25:31;166.17;;;25.20;;
6127;SDS011;7073;42.672;23.256;2022-11-18T04:27:58;102.47;;;21.90;;
6127;SDS011;7073;42.672;23.256;2022-11-18T04:30:25;73.10;;;22.53;;
6127;SDS011;7073;42.672;23.256;2022-11-18T04:32:54;69.33;;;22.60;;
6127;SDS011;7073;42.672;23.256;2022-11-18T04:35:20;63.93;;;24.13;;
6127;SDS011;7073;42.672;23.256;2022-11-18T04:37:47;43.93;;;21.07;;
6127;SDS011;7073;42.672;23.256;2022-11-18T04:40:14;41.33;;;21.80;;
6127;SDS011;7073;42.672;23.256;2022-11-18T04:42:41;46.80;;;21.47;;
6127;SDS011;7073;42.672;23.256;2022-11-18T04:45:08;61.30;;;22.10;;
6127;SDS011;7073;42.672;23.256;2022-11-18T04:47:36;64.53;;;25.00;;
6127;SDS011;7073;42.672;23.256;2022-11-18T04:50:04;50.10;;;22.93;;
6127;SDS011;7073;42.672;23.256;2022-11-18T04:52:31;61.40;;;23.73;;
6127;SDS011;7073;42.672;23.256;2022-11-18T04:54:58;73.17;;;30.40;;
6127;SDS011;7073;42.672;23.256;2022-11-18T04:57:25;51.30;;;25.97;;
6127;SDS011;7073;42.672;23.256;2022-11-18T04:59:52;56.17;;;25.47;;
6127;SDS011;7073;42.672;23.256;2022-11-18T05:02:19;291.80;;;45.00;;
6127;SDS011;7073;42.672;23.256;2022-11-18T05:04:45;462.10;;;51.23;;
6127;SDS011;7073;42.672;23.256;2022-11-18T05:07:14;424.43;;;49.23;;
6127;SDS011;7073;42.672;23.256;2022-11-18T05:09:41;329.43;;;47.00;;
6127;SDS011;7073;42.672;23.256;2022-11-18T05:12:09;251.53;;;47.10;;
6127;SDS011;7073;42.672;23.256;2022-11-18T05:14:55;358.30;;;52.47;;
6127;SDS011;7073;42.672;23.256;2022-11-18T05:17:22;256.43;;;45.00;;
6127;SDS011;7073;42.672;23.256;2022-11-18T05:19:48;88.63;;;36.77;;
6127;SDS011;7073;42.672;23.256;2022-11-18T05:22:16;324.00;;;49.90;;
6127;SDS011;7073;42.672;23.256;2022-11-18T05:24:43;268.50;;;40.30;;
6127;SDS011;7073;42.672;23.256;2022-11-18T05:27:10;366.87;;;43.27;;
6127;SDS011;7073;42.672;23.256;2022-11-18T05:29:38;537.40;;;58.00;;
6127;SDS011;7073;42.672;23.256;2022-11-18T05:32:05;92.90;;;35.17;;
6127;SDS011;7073;42.672;23.256;2022-11-18T05:34:31;331.43;;;46.10;;
6127;SDS011;7073;42.672;23.256;2022-11-18T05:36:58;158.97;;;39.20;;
6127;SDS011;7073;42.672;23.256;2022-11-18T05:39:27;390.20;;;51.70;;
6127;SDS011;7073;42.672;23.256;2022-11-18T05:41:53;270.00;;;45.37;;
6127;SDS011;7073;42.672;23.256;2022-11-18T05:44:37;432.07;;;46.73;;
6127;SDS011;7073;42.672;23.256;2022-11-18T05:47:04;312.70;;;40.07;;
6127;SDS011;7073;42.672;23.256;2022-11-18T05:49:31;490.63;;;49.20;;
6127;SDS011;7073;42.672;23.256;2022-11-18T05:51:58;284.47;;;40.13;;
6127;SDS011;7073;42.672;23.256;2022-11-18T05:54:26;303.70;;;43.03;;
6127;SDS011;7073;42.672;23.256;2022-11-18T05:56:53;452.20;;;46.83;;
6127;SDS011;7073;42.672;23.256;2022-11-18T05:59:20;146.83;;;34.30;;
6127;SDS011;7073;42.672;23.256;2022-11-18T06:01:48;391.43;;;48.70;;
6127;SDS011;7073;42.672;23.256;2022-11-18T06:04:17;316.43;;;43.23;;
6127;SDS011;7073;42.672;23.256;2022-11-18T06:06:47;255.40;;;37.90;;
6127;SDS011;7073;42.672;23.256;2022-11-18T06:09:17;217.77;;;40.67;;
6127;SDS011;7073;42.672;23.256;2022-11-18T06:11:51;137.73;;;35.50;;
6127;SDS011;7073;42.672;23.256;2022-11-18T06:14:23;261.13;;;43.30;;
6127;SDS011;7073;42.672;23.256;2022-11-18T06:16:53;202.43;;;42.37;;
6127;SDS011;7073;42.672;23.256;2022-11-18T06:19:21;84.20;;;34.73;;
6127;SDS011;7073;42.672;23.256;2022-11-18T06:21:48;200.77;;;41.87;;
6127;SDS011;7073;42.672;23.256;2022-11-18T06:24:16;107.97;;;35.80;;
6127;SDS011;7073;42.672;23.256;2022-11-18T06:26:43;136.63;;;39.20;;
6127;SDS011;7073;42.672;23.256;2022-11-18T06:29:13;303.03;;;51.17;;
6127;SDS011;7073;42.672;23.256;2022-11-18T06:31:43;192.40;;;42.93;;
6127;SDS011;7073;42.672;23.256;2022-11-18T06:34:10;272.97;;;50.77;;
6127;SDS011;7073;42.672;23.256;2022-11-18T06:36:37;375.60;;;58.03;;
6127;SDS011;7073;42.672;23.256;2022-11-18T06:39:04;237.00;;;52.53;;
6127;SDS011;7073;42.672;23.256;2022-11-18T06:41:32;166.60;;;45.40;;
6127;SDS011;7073;42.672;23.256;2022-11-18T06:43:59;229.50;;;45.73;;
6127;SDS011;7073;42.672;23.256;2022-11-18T06:46:26;233.77;;;47.73;;
6127;SDS011;7073;42.672;23.256;2022-11-18T06:49:25;144.67;;;42.07;;
6127;SDS011;7073;42.672;23.256;2022-11-18T06:51:53;183.70;;;47.23;;
6127;SDS011;7073;42.672;23.256;2022-11-18T06:54:20;182.77;;;45.17;;
6127;SDS011;7073;42.672;23.256;2022-11-18T06:56:47;141.47;;;38.23;;
6127;SDS011;7073;42.672;23.256;2022-11-18T06:59:14;133.17;;;37.50;;
6127;SDS011;7073;42.672;23.256;2022-11-18T07:01:47;176.47;;;49.63;;
6127;SDS011;7073;42.672;23.256;2022-11-18T07:04:15;149.20;;;47.83;;
6127;SDS011;7073;42.672;23.256;2022-11-18T07:06:42;209.03;;;50.97;;
6127;SDS011;7073;42.672;23.256;2022-11-18T07:09:09;183.27;;;49.57;;
6127;SDS011;7073;42.672;23.256;2022-11-18T07:11:36;176.10;;;50.30;;
6127;SDS011;7073;42.672;23.256;2022-11-18T07:14:05;140.33;;;45.90;;
6127;SDS011;7073;42.672;23.256;2022-11-18T07:16:32;172.20;;;43.90;;
6127;SDS011;7073;42.672;23.256;2022-11-18T07:19:06;158.87;;;44.33;;
6127;SDS011;7073;42.672;23.256;2022-11-18T07:21:33;121.83;;;44.77;;
6127;SDS011;7073;42.672;23.256;2022-11-18T07:24:00;118.07;;;41.27;;
6127;SDS011;7073;42.672;23.256;2022-11-18T07:26:31;102.30;;;39.00;;
6127;SDS011;7073;42.672;23.256;2022-11-18T07:28:58;93.60;;;34.77;;
6127;SDS011;7073;42.672;23.256;2022-11-18T07:31:24;113.77;;;32.03;;
6127;SDS011;7073;42.672;23.256;2022-11-18T07:33:51;187.57;;;39.10;;
6127;SDS011;7073;42.672;23.256;2022-11-18T07:36:20;115.37;;;30.30;;
6127;SDS011;7073;42.672;23.256;2022-11-18T07:38:48;93.43;;;30.33;;
6127;SDS011;7073;42.672;23.256;2022-11-18T07:41:17;197.67;;;38.50;;
6127;SDS011;7073;42.672;23.256;2022-11-18T07:43:45;100.77;;;35.40;;
6127;SDS011;7073;42.672;23.256;2022-11-18T07:46:13;105.67;;;36.07;;
6127;SDS011;7073;42.672;23.256;2022-11-18T07:48:42;94.03;;;33.67;;
6127;SDS011;7073;42.672;23.256;2022-11-18T07:51:09;118.60;;;36.40;;
6127;SDS011;7073;42.672;23.256;2022-11-18T07:53:38;132.37;;;35.23;;
6127;SDS011;7073;42.672;23.256;2022-11-18T07:56:06;148.53;;;34.60;;
6127;SDS011;7073;42.672;23.256;2022-11-18T07:58:34;162.17;;;34.07;;
6127;SDS011;7073;42.672;23.256;2022-11-18T08:01:05;186.97;;;34.83;;
6127;SDS011;7073;42.672;23.256;2022-11-18T08:03:33;113.30;;;30.73;;
6127;SDS011;7073;42.672;23.256;2022-11-18T08:06:00;122.50;;;29.23;;
6127;SDS011;7073;42.672;23.256;2022-11-18T08:08:28;164.43;;;32.57;;
6127;SDS011;7073;42.672;23.256;2022-11-18T08:10:56;68.67;;;26.80;;
6127;SDS011;7073;42.672;23.256;2022-11-18T08:13:23;140.07;;;32.30;;
6127;SDS011;7073;42.672;23.256;2022-11-18T08:15:51;77.30;;;26.97;;
6127;SDS011;7073;42.672;23.256;2022-11-18T08:18:18;71.13;;;30.77;;
6127;SDS011;7073;42.672;23.256;2022-11-18T08:20:46;102.23;;;30.63;;
6127;SDS011;7073;42.672;23.256;2022-11-18T08:23:13;81.30;;;31.17;;
6127;SDS011;7073;42.672;23.256;2022-11-18T08:25:41;89.17;;;32.53;;
6127;SDS011;7073;42.672;23.256;2022-11-18T08:28:11;115.90;;;30.97;;
6127;SDS011;7073;42.672;23.256;2022-11-18T08:30:38;96.33;;;31.60;;
6127;SDS011;7073;42.672;23.256;2022-11-18T08:33:05;85.83;;;31.43;;
6127;SDS011;7073;42.672;23.256;2022-11-18T08:35:32;75.10;;;30.93;;
6127;SDS011;7073;42.672;23.256;2022-11-18T08:37:59;85.57;;;31.23;;
6127;SDS011;7073;42.672;23.256;2022-11-18T08:40:26;78.40;;;32.63;;
6127;SDS011;7073;42.672;23.256;2022-11-18T08:42:52;103.60;;;33.70;;
6127;SDS011;7073;42.672;23.256;2022-11-18T08:45:21;109.73;;;40.30;;
6127;SDS011;7073;42.672;23.256;2022-11-18T08:47:47;95.47;;;41.23;;
6127;SDS011;7073;42.672;23.256;2022-11-18T08:50:14;120.00;;;45.80;;
6127;SDS011;7073;42.672;23.256;2022-11-18T08:52:41;93.87;;;37.50;;
6127;SDS011;7073;42.672;23.256;2022-11-18T08:55:08;98.17;;;35.77;;
6127;SDS011;7073;42.672;23.256;2022-11-18T08:57:35;108.53;;;36.43;;
6127;SDS011;7073;42.672;23.256;2022-11-18T09:00:02;99.47;;;37.73;;
6127;SDS011;7073;42.672;23.256;2022-11-18T09:02:31;93.40;;;36.40;;
6127;SDS011;7073;42.672;23.256;2022-11-18T09:04:57;92.43;;;36.10;;
6127;SDS011;7073;42.672;23.256;2022-11-18T09:07:24;77.03;;;36.47;;
6127;SDS011;7073;42.672;23.256;2022-11-18T09:09:52;85.83;;;38.33;;
6127;SDS011;7073;42.672;23.256;2022-11-18T09:12:19;81.00;;;34.00;;
6127;SDS011;7073;42.672;23.256;2022-11-18T09:14:45;72.80;;;30.83;;
6127;SDS011;7073;42.672;23.256;2022-11-18T09:17:12;65.40;;;30.93;;
6127;SDS011;7073;42.672;23.256;2022-11-18T09:19:41;75.33;;;31.97;;
6127;SDS011;7073;42.672;23.256;2022-11-18T09:22:08;57.17;;;26.40;;
6127;SDS011;7073;42.672;23.256;2022-11-18T09:24:35;55.13;;;28.13;;
6127;SDS011;7073;42.672;23.256;2022-11-18T09:27:02;54.23;;;27.27;;
6127;SDS011;7073;42.672;23.256;2022-11-18T09:29:29;58.67;;;29.10;;
6127;SDS011;7073;42.672;23.256;2022-11-18T09:31:56;43.80;;;23.60;;
6127;SDS011;7073;42.672;23.256;2022-11-18T09:34:26;43.73;;;22.40;;
6127;SDS011;7073;42.672;23.256;2022-11-18T09:36:54;37.97;;;20.73;;
6127;SDS011;7073;42.672;23.256;2022-11-18T09:39:21;35.13;;;19.40;;
6127;SDS011;7073;42.672;23.256;2022-11-18T09:41:50;38.10;;;19.40;;
6127;SDS011;7073;42.672;23.256;2022-11-18T09:44:29;33.03;;;17.70;;
6127;SDS011;7073;42.672;23.256;2022-11-18T09:47:13;29.23;;;16.63;;
6127;SDS011;7073;42.672;23.256;2022-11-18T09:49:47;30.63;;;17.80;;
6127;SDS011;7073;42.672;23.256;2022-11-18T09:52:18;35.87;;;19.60;;
6127;SDS011;7073;42.672;23.256;2022-11-18T09:54:47;34.80;;;18.10;;
6127;SDS011;7073;42.672;23.256;2022-11-18T09:57:14;28.63;;;17.40;;
6127;SDS011;7073;42.672;23.256;2022-11-18T09:59:42;33.97;;;18.93;;
6127;SDS011;7073;42.672;23.256;2022-11-18T10:05:13;26.60;;;17.67;;
6127;SDS011;7073;42.672;23.256;2022-11-18T10:07:46;31.43;;;20.00;;
6127;SDS011;7073;42.672;23.256;2022-11-18T10:10:21;43.40;;;22.97;;
6127;SDS011;7073;42.672;23.256;2022-11-18T10:12:54;36.93;;;22.50;;
6127;SDS011;7073;42.672;23.256;2022-11-18T10:15:26;41.73;;;22.30;;
6127;SDS011;7073;42.672;23.256;2022-11-18T10:18:01;43.57;;;20.73;;
6127;SDS011;7073;42.672;23.256;2022-11-18T10:20:42;41.30;;;21.10;;
6127;SDS011;7073;42.672;23.256;2022-11-18T10:23:22;32.90;;;19.40;;
6127;SDS011;7073;42.672;23.256;2022-11-18T10:25:54;34.03;;;19.97;;
6127;SDS011;7073;42.672;23.256;2022-11-18T10:28:21;33.67;;;20.80;;
6127;SDS011;7073;42.672;23.256;2022-11-18T10:30:49;36.43;;;20.83;;
6127;SDS011;7073;42.672;23.256;2022-11-18T10:33:22;37.27;;;20.63;;
6127;SDS011;7073;42.672;23.256;2022-11-18T10:36:07;36.30;;;20.03;;
6127;SDS011;7073;42.672;23.256;2022-11-18T10:38:38;39.50;;;21.90;;
6127;SDS011;7073;42.672;23.256;2022-11-18T10:41:05;42.47;;;22.20;;
6127;SDS011;7073;42.672;23.256;2022-11-18T10:43:44;39.23;;;22.37;;
6127;SDS011;7073;42.672;23.256;2022-11-18T10:46:14;43.50;;;23.43;;
6127;SDS011;7073;42.672;23.256;2022-11-18T10:49:03;44.95;;;25.48;;
6127;SDS011;7073;42.672;23.256;2022-11-18T10:51:39;38.00;;;23.43;;
6127;SDS011;7073;42.672;23.256;2022-11-18T10:54:10;44.10;;;24.83;;
6127;SDS011;7073;42.672;23.256;2022-11-18T10:56:43;46.03;;;24.70;;
6127;SDS011;7073;42.672;23.256;2022-11-18T10:59:16;42.90;;;23.83;;
6127;SDS011;7073;42.672;23.256;2022-11-18T11:01:57;43.53;;;22.87;;
6127;SDS011;7073;42.672;23.256;2022-11-18T11:04:26;42.20;;;23.50;;
6127;SDS011;7073;42.672;23.256;2022-11-18T11:06:55;41.53;;;23.73;;
6127;SDS011;7073;42.672;23.256;2022-11-18T11:09:26;39.77;;;23.90;;
6127;SDS011;7073;42.672;23.256;2022-11-18T11:11:55;44.03;;;23.00;;
6127;SDS011;7073;42.672;23.256;2022-11-18T11:14:25;45.30;;;26.53;;
6127;SDS011;7073;42.672;23.256;2022-11-18T11:16:57;46.97;;;25.40;;
6127;SDS011;7073;42.672;23.256;2022-11-18T11:19:34;52.30;;;25.00;;
6127;SDS011;7073;42.672;23.256;2022-11-18T11:22:10;39.97;;;24.00;;
6127;SDS011;7073;42.672;23.256;2022-11-18T11:24:39;40.77;;;22.63;;
6127;SDS011;7073;42.672;23.256;2022-11-18T11:27:10;43.37;;;24.47;;
6127;SDS011;7073;42.672;23.256;2022-11-18T11:30:09;51.90;;;27.50;;
6127;SDS011;7073;42.672;23.256;2022-11-18T11:35:53;57.60;;;33.40;;
6127;SDS011;7073;42.672;23.256;2022-11-18T11:38:33;48.23;;;27.00;;
6127;SDS011;7073;42.672;23.256;2022-11-18T11:41:08;44.53;;;27.87;;
6127;SDS011;7073;42.672;23.256;2022-11-18T11:43:47;50.30;;;29.30;;
6127;SDS011;7073;42.672;23.256;2022-11-18T11:46:30;52.53;;;28.30;;
6127;SDS011;7073;42.672;23.256;2022-11-18T11:49:09;52.43;;;27.20;;
6127;SDS011;7073;42.672;23.256;2022-11-18T11:51:44;55.30;;;29.37;;
6127;SDS011;7073;42.672;23.256;2022-11-18T11:57:14;59.27;;;32.43;;
6127;SDS011;7073;42.672;23.256;2022-11-18T11:59:51;52.63;;;27.70;;
6127;SDS011;7073;42.672;23.256;2022-11-18T12:02:37;54.60;;;27.20;;
6127;SDS011;7073;42.672;23.256;2022-11-18T12:05:23;43.33;;;23.57;;
6127;SDS011;7073;42.672;23.256;2022-11-18T12:07:58;43.67;;;24.70;;
6127;SDS011;7073;42.672;23.256;2022-11-18T12:10:28;43.13;;;24.17;;
6127;SDS011;7073;42.672;23.256;2022-11-18T12:16:00;26.73;;;15.67;;
6127;SDS011;7073;42.672;23.256;2022-11-18T12:18:36;41.17;;;20.43;;
6127;SDS011;7073;42.672;23.256;2022-11-18T12:21:07;10.70;;;6.97;;
6127;SDS011;7073;42.672;23.256;2022-11-18T12:23:34;26.13;;;15.20;;
6127;SDS011;7073;42.672;23.256;2022-11-18T12:26:03;17.83;;;10.50;;
6127;SDS011;7073;42.672;23.256;2022-11-18T12:28:36;18.40;;;11.80;;
6127;SDS011;7073;42.672;23.256;2022-11-18T12:34:04;17.47;;;11.20;;
6127;SDS011;7073;42.672;23.256;2022-11-18T12:36:46;25.60;;;12.30;;
6127;SDS011;7073;42.672;23.256;2022-11-18T12:42:34;32.03;;;18.47;;
6127;SDS011;7073;42.672;23.256;2022-11-18T12:45:46;11.10;;;6.67;;
6127;SDS011;7073;42.672;23.256;2022-11-18T12:48:31;19.13;;;8.30;;
6127;SDS011;7073;42.672;23.256;2022-11-18T12:51:00;4.90;;;4.03;;
6127;SDS011;7073;42.672;23.256;2022-11-18T12:53:30;2.43;;;2.23;;
6127;SDS011;7073;42.672;23.256;2022-11-18T12:56:00;4.13;;;2.67;;
6127;SDS011;7073;42.672;23.256;2022-11-18T12:58:36;3.80;;;3.13;;
6127;SDS011;7073;42.672;23.256;2022-11-18T13:01:05;3.70;;;2.80;;
6127;SDS011;7073;42.672;23.256;2022-11-18T13:03:35;5.13;;;3.30;;
6127;SDS011;7073;42.672;23.256;2022-11-18T13:06:04;14.23;;;3.03;;
6127;SDS011;7073;42.672;23.256;2022-11-18T13:08:37;3.50;;;3.20;;
6127;SDS011;7073;42.672;23.256;2022-11-18T13:11:09;4.40;;;2.97;;
6127;SDS011;7073;42.672;23.256;2022-11-18T13:13:58;3.00;;;2.40;;
6127;SDS011;7073;42.672;23.256;2022-11-18T13:16:47;5.43;;;3.40;;
6127;SDS011;7073;42.672;23.256;2022-11-18T13:19:32;5.50;;;2.97;;
6127;SDS011;7073;42.672;23.256;2022-11-18T13:21:59;12.33;;;3.33;;
6127;SDS011;7073;42.672;23.256;2022-11-18T13:24:45;3.80;;;2.40;;
6127;SDS011;7073;42.672;23.256;2022-11-18T13:27:22;4.43;;;3.97;;
6127;SDS011;7073;42.672;23.256;2022-11-18T13:30:00;3.00;;;2.70;;
6127;SDS011;7073;42.672;23.256;2022-11-18T13:32:31;6.80;;;3.43;;
6127;SDS011;7073;42.672;23.256;2022-11-18T13:34:58;3.47;;;3.17;;
6127;SDS011;7073;42.672;23.256;2022-11-18T13:37:35;2.67;;;2.47;;
6127;SDS011;7073;42.672;23.256;2022-11-18T13:40:17;3.33;;;2.70;;
6127;SDS011;7073;42.672;23.256;2022-11-18T13:42:45;2.53;;;2.33;;
6127;SDS011;7073;42.672;23.256;2022-11-18T13:45:13;5.50;;;3.10;;
6127;SDS011;7073;42.672;23.256;2022-11-18T13:47:42;3.20;;;2.90;;
6127;SDS011;7073;42.672;23.256;2022-11-18T13:50:14;6.03;;;2.67;;
6127;SDS011;7073;42.672;23.256;2022-11-18T13:52:47;3.70;;;2.30;;
6127;SDS011;7073;42.672;23.256;2022-11-18T13:55:21;15.43;;;2.30;;
6127;SDS011;7073;42.672;23.256;2022-11-18T13:57:51;4.07;;;2.57;;
6127;SDS011;7073;42.672;23.256;2022-11-18T14:00:26;2.83;;;2.60;;
6127;SDS011;7073;42.672;23.256;2022-11-18T14:02:56;2.67;;;2.43;;
6127;SDS011;7073;42.672;23.256;2022-11-18T14:05:25;3.83;;;2.97;;
6127;SDS011;7073;42.672;23.256;2022-11-18T14:08:01;4.73;;;2.27;;
6127;SDS011;7073;42.672;23.256;2022-11-18T14:10:38;6.47;;;2.40;;
6127;SDS011;7073;42.672;23.256;2022-11-18T14:13:16;2.60;;;2.40;;
6127;SDS011;7073;42.672;23.256;2022-11-18T14:15:48;3.40;;;2.83;;
6127;SDS011;7073;42.672;23.256;2022-11-18T14:18:18;3.40;;;2.60;;
6127;SDS011;7073;42.672;23.256;2022-11-18T14:20:54;3.30;;;2.13;;
6127;SDS011;7073;42.672;23.256;2022-11-18T14:23:24;2.90;;;2.17;;
6127;SDS011;7073;42.672;23.256;2022-11-18T14:25:53;3.60;;;2.77;;
6127;SDS011;7073;42.672;23.256;2022-11-18T14:28:22;2.53;;;2.10;;
6127;SDS011;7073;42.672;23.256;2022-11-18T14:30:59;3.37;;;2.30;;
6127;SDS011;7073;42.672;23.256;2022-11-18T14:33:29;3.07;;;2.77;;
6127;SDS011;7073;42.672;23.256;2022-11-18T14:35:58;2.90;;;2.20;;
6127;SDS011;7073;42.672;23.256;2022-11-18T14:38:37;2.80;;;2.60;;
6127;SDS011;7073;42.672;23.256;2022-11-18T14:41:09;5.17;;;3.00;;
6127;SDS011;7073;42.672;23.256;2022-11-18T14:43:37;2.70;;;2.50;;
6127;SDS011;7073;42.672;23.256;2022-11-18T14:46:05;3.70;;;2.93;;
6127;SDS011;7073;42.672;23.256;2022-11-18T14:48:39;2.30;;;2.10;;
6127;SDS011;7073;42.672;23.256;2022-11-18T14:51:05;3.37;;;2.97;;
6127;SDS011;7073;42.672;23.256;2022-11-18T14:53:32;4.80;;;2.80;;
6127;SDS011;7073;42.672;23.256;2022-11-18T14:55:59;2.70;;;2.50;;
6127;SDS011;7073;42.672;23.256;2022-11-18T14:58:26;3.57;;;3.10;;
6127;SDS011;7073;42.672;23.256;2022-11-18T15:00:52;4.30;;;3.47;;
6127;SDS011;7073;42.672;23.256;2022-11-18T15:03:19;4.93;;;2.37;;
6127;SDS011;7073;42.672;23.256;2022-11-18T15:05:48;3.03;;;2.83;;
6127;SDS011;7073;42.672;23.256;2022-11-18T15:08:14;3.50;;;3.20;;
6127;SDS011;7073;42.672;23.256;2022-11-18T15:10:41;6.37;;;3.73;;
6127;SDS011;7073;42.672;23.256;2022-11-18T15:13:08;6.10;;;2.97;;
6127;SDS011;7073;42.672;23.256;2022-11-18T15:15:35;3.00;;;2.67;;
6127;SDS011;7073;42.672;23.256;2022-11-18T15:18:01;2.80;;;2.60;;
6127;SDS011;7073;42.672;23.256;2022-11-18T15:20:28;4.40;;;3.47;;
6127;SDS011;7073;42.672;23.256;2022-11-18T15:22:56;5.20;;;3.70;;